Time;durP1;ratioP1;P1;durP2;ratioP2;P2;SDS_P1;SDS_P2;PMS_P1;PMS_P2;Temp;Humidity;BMP_temperature;BMP_pressure;BME280_temperature;BME280_humidity;BME280_pressure;Samples;Min_cycle;Max_cycle;Signal;HPM_P1;HPM_P2
2022/01/03 00:01:06;;;;;;;9.30;2.43;;;;;;;11.70;81.92;98186.16;4854112;29;21253;-82
2022/01/03 00:03:34;;;;;;;6.10;2.50;;;;;;;11.74;83.64;98202.44;4852693;29;20622;-83
2022/01/03 00:06:06;;;;;;;7.57;3.47;;;;;;;11.76;83.66;98189.16;4871570;29;20657;-83
2022/01/03 00:08:34;;;;;;;4.30;2.50;;;;;;;11.78;82.80;98184.63;4858407;29;21030;-83
2022/01/03 00:11:03;;;;;;;8.87;3.70;;;;;;;11.79;82.87;98181.09;4859143;29;21224;-83
2022/01/03 00:13:31;;;;;;;4.37;2.30;;;;;;;11.78;83.59;98179.41;4860579;29;20633;-83
2022/01/03 00:16:00;;;;;;;3.30;2.13;;;;;;;11.76;81.33;98176.09;4858591;29;20675;-83
2022/01/03 00:18:28;;;;;;;4.17;1.90;;;;;;;11.76;83.65;98176.09;4854075;29;20741;-82
2022/01/03 00:20:59;;;;;;;4.40;2.13;;;;;;;11.76;81.50;98156.97;4851640;29;20724;-83
2022/01/03 00:23:28;;;;;;;6.70;1.87;;;;;;;11.76;82.66;98149.13;4850832;29;21031;-82
2022/01/03 00:26:00;;;;;;;4.57;1.63;;;;;;;11.76;80.64;98139.50;4851471;29;20635;-83
2022/01/03 00:28:34;;;;;;;5.03;2.17;;;;;;;11.79;82.92;98138.47;4833093;29;20650;-82
2022/01/03 00:31:05;;;;;;;4.83;2.13;;;;;;;11.77;80.41;98141.19;4850789;29;20729;-83
2022/01/03 00:33:33;;;;;;;3.50;1.40;;;;;;;11.77;81.89;98142.94;4850739;29;21014;-83
2022/01/03 00:36:05;;;;;;;9.47;1.87;;;;;;;11.83;80.56;98150.34;4862734;29;21099;-83
2022/01/03 00:38:36;;;;;;;3.50;2.00;;;;;;;11.85;81.96;98156.31;4843647;29;21209;-83
2022/01/03 00:41:04;;;;;;;5.80;2.20;;;;;;;11.85;80.98;98153.69;4844167;29;21485;-83
2022/01/03 00:43:32;;;;;;;5.53;1.60;;;;;;;11.88;81.04;98154.28;4853468;29;20662;-83
2022/01/03 00:46:01;;;;;;;4.27;1.60;;;;;;;11.93;81.92;98160.00;4851890;29;20633;-82
2022/01/03 00:48:32;;;;;;;5.87;1.50;;;;;;;11.94;80.59;98158.25;4848441;29;20684;-82
2022/01/03 00:51:02;;;;;;;3.50;1.50;;;;;;;11.99;79.32;98162.19;4858529;29;20643;-83
2022/01/03 00:53:31;;;;;;;5.40;1.80;;;;;;;12.06;78.08;98178.28;4857742;29;20645;-83
2022/01/03 00:56:05;;;;;;;5.63;1.90;;;;;;;12.14;79.54;98186.38;4857328;29;20652;-83
2022/01/03 00:58:36;;;;;;;3.97;1.53;;;;;;;12.16;79.44;98177.47;4856809;29;20712;-83
2022/01/03 01:01:06;;;;;;;3.70;1.50;;;;;;;12.19;78.73;98185.09;4868980;29;20681;-83
2022/01/03 01:03:37;;;;;;;5.57;1.30;;;;;;;12.22;77.72;98163.13;4849812;29;20722;-83
2022/01/03 01:06:10;;;;;;;2.47;1.10;;;;;;;12.26;77.56;98163.59;4865507;29;22180;-82
2022/01/03 01:08:38;;;;;;;4.97;1.30;;;;;;;12.29;77.04;98167.78;4855741;29;21165;-83
2022/01/03 01:11:08;;;;;;;3.80;1.63;;;;;;;12.37;75.80;98160.19;4848684;29;20681;-83
2022/01/03 01:13:39;;;;;;;4.47;1.73;;;;;;;12.41;76.27;98172.13;4852566;29;20727;-83
2022/01/03 01:16:09;;;;;;;3.90;1.30;;;;;;;12.45;75.98;98181.41;4840013;29;20666;-83
2022/01/03 01:18:46;;;;;;;4.90;1.30;;;;;;;12.48;76.34;98178.53;4862524;29;20628;-83
2022/01/03 01:21:14;;;;;;;5.70;1.43;;;;;;;12.48;74.84;98184.63;4864278;29;20621;-83
2022/01/03 01:23:43;;;;;;;3.60;1.40;;;;;;;12.51;75.75;98171.31;4854427;29;20696;-83
2022/01/03 01:29:01;;;;;;;2.80;1.10;;;;;;;12.55;75.07;98172.72;4847853;29;20644;-83
2022/01/03 01:31:30;;;;;;;3.17;1.30;;;;;;;12.57;74.47;98167.38;4858340;29;20740;-82
2022/01/03 01:34:03;;;;;;;8.63;1.90;;;;;;;12.59;74.01;98178.59;4864757;29;20675;-82
2022/01/03 01:36:31;;;;;;;7.13;1.67;;;;;;;12.56;75.29;98170.97;4844124;29;21079;-83
2022/01/03 01:39:01;;;;;;;4.07;1.50;;;;;;;12.61;74.45;98181.91;4846989;29;20649;-83
2022/01/03 01:41:30;;;;;;;4.10;1.20;;;;;;;12.63;73.56;98191.34;4830022;29;20676;-83
2022/01/03 01:43:59;;;;;;;3.73;1.30;;;;;;;12.61;75.16;98182.75;4846224;29;20724;-83
2022/01/03 01:46:28;;;;;;;3.00;1.10;;;;;;;12.60;74.20;98180.25;4858346;29;20702;-83
2022/01/03 01:49:06;;;;;;;5.13;1.50;;;;;;;12.63;75.71;98185.25;4854676;29;21095;-83
2022/01/03 01:51:37;;;;;;;3.40;1.20;;;;;;;12.63;74.42;98193.09;4851903;29;20769;-83
2022/01/03 01:54:14;;;;;;;3.33;1.30;;;;;;;12.63;74.51;98191.34;4846801;29;20633;-83
2022/01/03 01:56:55;;;;;;;4.23;1.23;;;;;;;12.65;74.41;98199.06;4853067;29;21233;-82
2022/01/03 01:59:32;;;;;;;5.10;1.40;;;;;;;12.63;74.27;98183.47;4841183;29;21206;-83
2022/01/03 02:02:04;;;;;;;4.27;1.73;;;;;;;12.61;76.04;98185.34;4851175;29;21054;-83
2022/01/03 02:04:56;;;;;;;5.67;1.57;;;;;;;12.58;74.55;98198.66;4853086;29;20962;-83
2022/01/03 02:07:42;;;;;;;4.93;2.17;;;;;;;12.56;75.02;98191.91;4851247;29;20697;-82
2022/01/03 02:10:12;;;;;;;4.27;1.57;;;;;;;12.54;75.13;98191.16;4846127;29;21001;-82
2022/01/03 02:12:44;;;;;;;4.17;1.30;;;;;;;12.53;75.08;98194.75;4851779;29;21174;-83
2022/01/03 02:15:15;;;;;;;6.30;1.70;;;;;;;12.55;75.13;98208.53;4851993;29;21209;-82
2022/01/03 02:17:47;;;;;;;5.60;1.40;;;;;;;12.53;75.17;98207.81;4840218;29;21017;-82
2022/01/03 02:20:20;;;;;;;4.37;1.20;;;;;;;12.53;76.79;98206.03;4855976;29;20646;-83
2022/01/03 02:22:51;;;;;;;4.30;1.33;;;;;;;12.51;75.19;98199.25;4872114;29;20660;-83
2022/01/03 02:25:25;;;;;;;3.00;1.20;;;;;;;12.48;75.59;98204.69;4855625;29;20731;-82
2022/01/03 02:27:55;;;;;;;4.17;1.20;;;;;;;12.45;76.22;98192.69;4840329;29;20708;-82
2022/01/03 02:30:28;;;;;;;2.97;1.50;;;;;;;12.50;76.83;98202.81;4831601;29;20653;-82
2022/01/03 02:32:56;;;;;;;4.07;1.50;;;;;;;12.52;75.82;98198.31;4845072;29;21190;-83
2022/01/03 02:35:26;;;;;;;3.43;1.60;;;;;;;12.49;76.89;98204.59;4844509;29;21223;-82
2022/01/03 02:37:55;;;;;;;9.07;1.73;;;;;;;12.48;75.94;98202.06;4850242;29;21036;-82
2022/01/03 02:40:24;;;;;;;4.70;1.20;;;;;;;12.45;76.85;98205.78;4867237;29;20631;-83
2022/01/03 02:42:55;;;;;;;5.50;1.60;;;;;;;12.45;76.79;98208.41;4866021;29;20717;-82
2022/01/03 02:45:27;;;;;;;4.20;1.90;;;;;;;12.46;76.00;98206.59;4869597;29;20638;-83
2022/01/03 02:47:57;;;;;;;3.50;1.40;;;;;;;12.46;76.46;98209.22;4854901;29;21479;-82
2022/01/03 02:50:29;;;;;;;5.30;1.23;;;;;;;12.44;76.59;98216.34;4848002;29;20997;-83
2022/01/03 02:52:58;;;;;;;3.60;1.10;;;;;;;12.44;77.72;98211.13;4848799;29;20640;-82
2022/01/03 02:55:27;;;;;;;4.90;1.43;;;;;;;12.46;76.38;98217.06;4868839;29;21171;-83
2022/01/03 02:57:59;;;;;;;6.90;1.50;;;;;;;12.48;76.41;98217.78;4837744;29;20669;-82
2022/01/03 03:00:31;;;;;;;4.33;1.20;;;;;;;12.49;77.50;98215.06;4841471;29;20664;-83
2022/01/03 03:02:59;;;;;;;2.90;1.40;;;;;;;12.53;76.71;98213.06;4856713;29;20625;-83
2022/01/03 03:05:29;;;;;;;5.33;2.07;;;;;;;12.51;77.27;98207.09;4856061;29;20628;-83
2022/01/03 03:07:57;;;;;;;3.80;1.40;;;;;;;12.54;77.11;98212.09;4865931;29;20637;-83
2022/01/03 03:10:26;;;;;;;2.47;1.43;;;;;;;12.57;76.71;98222.34;4863624;29;20633;-82
2022/01/03 03:12:59;;;;;;;4.50;1.40;;;;;;;12.56;77.40;98228.53;4845499;29;20669;-83
2022/01/03 03:15:30;;;;;;;4.23;1.57;;;;;;;12.54;76.44;98220.78;4846894;29;20687;-83
2022/01/03 03:17:58;;;;;;;4.47;1.50;;;;;;;12.53;76.09;98220.91;4856847;29;21085;-83
2022/01/03 03:20:29;;;;;;;4.33;1.30;;;;;;;12.51;77.45;98225.41;4847280;29;20638;-82
2022/01/03 03:22:59;;;;;;;6.77;1.53;;;;;;;12.52;75.97;98220.06;4833613;29;20659;-83
2022/01/03 03:25:32;;;;;;;5.73;1.70;;;;;;;12.56;76.53;98226.75;4844259;29;21190;-82
2022/01/03 03:28:07;;;;;;;4.33;1.40;;;;;;;12.60;75.11;98219.50;4863403;29;20626;-83
2022/01/03 03:30:37;;;;;;;4.57;1.50;;;;;;;12.58;75.44;98230.06;4850914;29;20733;-83
2022/01/03 03:33:10;;;;;;;4.17;1.30;;;;;;;12.59;75.50;98230.94;4845398;29;20694;-82
2022/01/03 03:35:42;;;;;;;4.80;1.40;;;;;;;12.60;75.59;98217.72;4869059;29;21182;-82
2022/01/03 03:38:12;;;;;;;5.97;1.63;;;;;;;12.57;75.36;98227.56;4849077;29;20665;-82
2022/01/03 03:40:43;;;;;;;3.83;1.30;;;;;;;12.56;75.04;98226.75;4862227;29;20641;-83
2022/01/03 03:43:11;;;;;;;5.73;1.57;;;;;;;12.52;76.12;98225.28;4856032;29;20645;-83
2022/01/03 03:45:40;;;;;;;5.13;1.17;;;;;;;12.51;74.98;98226.25;4857398;29;20622;-83
2022/01/03 03:48:08;;;;;;;4.10;1.73;;;;;;;12.50;75.25;98223.75;4845414;29;20667;-82
2022/01/03 03:50:36;;;;;;;4.10;1.40;;;;;;;12.50;76.64;98226.38;4835448;29;20677;-83
2022/01/03 03:53:09;;;;;;;5.50;1.50;;;;;;;12.51;76.23;98222.78;4854225;29;20651;-83
2022/01/03 03:55:38;;;;;;;8.57;1.30;;;;;;;12.52;75.21;98219.22;4855766;29;20676;-83
2022/01/03 03:58:06;;;;;;;3.07;1.30;;;;;;;12.52;74.89;98227.91;4855614;29;21001;-82
2022/01/03 04:00:34;;;;;;;5.17;1.30;;;;;;;12.52;74.99;98224.47;4846756;29;20658;-82
2022/01/03 04:03:06;;;;;;;5.27;1.83;;;;;;;12.51;75.26;98228.88;4854827;29;20638;-83
2022/01/03 04:05:35;;;;;;;5.30;1.37;;;;;;;12.55;75.67;98232.91;4851050;29;21233;-83
2022/01/03 04:08:04;;;;;;;6.47;1.43;;;;;;;12.56;75.03;98234.59;4853422;29;20651;-83
2022/01/03 04:10:33;;;;;;;4.53;1.40;;;;;;;12.54;75.36;98227.78;4847729;29;20660;-83
2022/01/03 04:13:01;;;;;;;7.13;1.60;;;;;;;12.55;75.73;98237.31;4834829;29;20660;-83
2022/01/03 04:15:31;;;;;;;6.40;1.70;;;;;;;12.52;75.39;98230.53;4849100;29;20662;-83
2022/01/03 04:18:01;;;;;;;3.97;1.17;;;;;;;12.56;75.57;98231.16;4833595;29;20760;-83
2022/01/03 04:20:29;;;;;;;3.30;1.20;;;;;;;12.55;76.55;98226.84;4857140;29;20626;-83
2022/01/03 04:22:57;;;;;;;6.97;1.67;;;;;;;12.55;75.71;98226.84;4864900;29;20636;-83
2022/01/03 04:25:26;;;;;;;6.33;1.30;;;;;;;12.57;76.13;98222.34;4863549;29;20632;-83
2022/01/03 04:27:55;;;;;;;4.43;1.50;;;;;;;12.54;75.35;98225.16;4860402;29;20634;-83
2022/01/03 04:30:23;;;;;;;3.97;1.30;;;;;;;12.55;76.42;98226.84;4862744;29;20630;-83
2022/01/03 04:32:51;;;;;;;8.70;1.70;;;;;;;12.56;76.85;98226.75;4860370;29;20620;-83
2022/01/03 04:35:20;;;;;;;5.40;1.30;;;;;;;12.56;75.99;98231.16;4858674;29;21205;-83
2022/01/03 04:37:48;;;;;;;3.63;1.50;;;;;;;12.57;76.50;98231.03;4851210;29;20650;-83
2022/01/03 04:40:16;;;;;;;5.17;1.70;;;;;;;12.64;76.73;98234.03;4855766;29;21193;-83
2022/01/03 04:42:44;;;;;;;5.27;1.37;;;;;;;12.65;75.68;98233.09;4837853;29;20663;-83
2022/01/03 04:45:14;;;;;;;5.63;1.53;;;;;;;12.68;76.39;98243.31;4870075;29;20699;-83
2022/01/03 04:47:43;;;;;;;5.13;1.70;;;;;;;12.68;76.12;98245.94;4840747;29;21323;-83
2022/01/03 04:50:11;;;;;;;6.80;1.37;;;;;;;12.67;75.77;98239.03;4850976;29;20628;-83
2022/01/03 04:52:39;;;;;;;4.50;1.70;;;;;;;12.66;74.97;98250.44;4865615;29;20658;-83
2022/01/03 04:55:08;;;;;;;4.80;1.57;;;;;;;12.63;75.82;98241.06;4850054;29;20644;-83
2022/01/03 04:57:36;;;;;;;11.70;3.60;;;;;;;12.61;76.08;98248.16;4852976;29;20641;-83
2022/01/03 05:00:06;;;;;;;10.03;2.50;;;;;;;12.57;76.14;98253.72;4851245;29;21389;-83
2022/01/03 05:02:37;;;;;;;4.43;1.30;;;;;;;12.56;76.91;98237.22;4853563;29;20639;-83
2022/01/03 05:05:06;;;;;;;4.90;2.00;;;;;;;12.50;76.59;98250.75;4834732;29;20647;-83
2022/01/03 05:07:35;;;;;;;4.30;1.17;;;;;;;12.51;76.70;98244.56;4850058;29;20664;-83
2022/01/03 05:10:03;;;;;;;6.07;1.47;;;;;;;12.47;76.81;98245.72;4859841;29;20644;-83
2022/01/03 05:12:32;;;;;;;3.40;1.30;;;;;;;12.39;78.46;98260.34;4861086;29;21151;-83
2022/01/03 05:15:00;;;;;;;6.20;1.30;;;;;;;12.23;80.41;98266.78;4863452;29;20639;-82
2022/01/03 05:17:31;;;;;;;3.73;1.00;;;;;;;12.14;81.05;98270.88;4858739;29;20645;-82
2022/01/03 05:20:02;;;;;;;3.40;1.20;;;;;;;11.97;81.13;98275.66;4846618;29;21243;-83
2022/01/03 05:22:31;;;;;;;3.53;0.97;;;;;;;11.88;82.94;98273.69;4846843;29;20652;-83
2022/01/03 05:24:59;;;;;;;4.40;1.10;;;;;;;11.80;83.89;98275.97;4844988;29;20705;-83
2022/01/03 05:27:27;;;;;;;2.03;0.90;;;;;;;11.73;83.64;98279.13;4846963;29;20657;-83
2022/01/03 05:29:56;;;;;;;2.90;0.80;;;;;;;11.64;87.04;98279.81;4855046;29;21039;-82
2022/01/03 05:32:24;;;;;;;2.60;1.20;;;;;;;11.58;84.98;98281.06;4842168;29;20692;-83
2022/01/03 05:34:53;;;;;;;2.47;0.90;;;;;;;11.49;87.75;98270.41;4846216;29;21146;-82
2022/01/03 05:37:22;;;;;;;4.10;1.13;;;;;;;11.43;86.81;98270.78;4870959;29;20642;-83
2022/01/03 05:39:51;;;;;;;2.97;1.40;;;;;;;11.40;86.85;98271.84;4840029;29;20679;-83
2022/01/03 05:42:20;;;;;;;4.70;1.00;;;;;;;11.40;88.79;98271.00;4867453;29;20631;-83
2022/01/03 05:44:48;;;;;;;3.50;1.00;;;;;;;11.38;88.73;98267.66;4854199;29;20656;-83
2022/01/03 05:47:17;;;;;;;5.00;1.17;;;;;;;11.35;87.81;98268.72;4851707;29;20659;-83
2022/01/03 05:49:46;;;;;;;4.83;1.10;;;;;;;11.38;89.45;98267.66;4869558;29;20637;-83
2022/01/03 05:52:14;;;;;;;5.07;1.30;;;;;;;11.34;88.73;98266.22;4855813;29;20720;-83
2022/01/03 05:54:43;;;;;;;4.87;1.00;;;;;;;11.34;89.06;98274.88;4866586;29;20626;-82
2022/01/03 05:57:11;;;;;;;3.70;1.20;;;;;;;11.37;89.59;98276.44;4839893;29;20705;-83
2022/01/03 05:59:40;;;;;;;3.23;1.07;;;;;;;11.36;89.31;98279.97;4849805;29;20713;-83
2022/01/03 06:02:08;;;;;;;5.93;1.33;;;;;;;11.36;88.77;98279.97;4869152;29;21198;-83
2022/01/03 06:04:42;;;;;;;5.03;1.10;;;;;;;11.38;88.33;98278.09;4847534;29;21083;-83
2022/01/03 06:07:13;;;;;;;4.90;1.47;;;;;;;11.37;90.29;98277.25;4848499;29;20789;-83
2022/01/03 06:09:47;;;;;;;4.20;1.30;;;;;;;11.41;88.63;98275.28;4849274;29;20640;-83
2022/01/03 06:12:16;;;;;;;4.07;1.40;;;;;;;11.42;88.92;98276.94;4863975;29;20629;-83
2022/01/03 06:14:51;;;;;;;3.50;1.37;;;;;;;11.42;88.91;98284.78;4862665;29;20636;-82
2022/01/03 06:17:20;;;;;;;5.50;2.60;;;;;;;11.43;89.92;98284.69;4846928;29;20644;-83
2022/01/03 06:19:50;;;;;;;5.80;1.40;;;;;;;11.45;90.08;98285.41;4864458;29;21036;-83
2022/01/03 06:22:19;;;;;;;5.43;1.43;;;;;;;11.45;87.98;98285.41;4863726;29;20622;-83
2022/01/03 06:24:54;;;;;;;5.07;1.60;;;;;;;11.46;88.50;98284.47;4857672;29;20736;-83
2022/01/03 06:27:22;;;;;;;5.13;1.47;;;;;;;11.49;88.51;98281.69;4850765;29;20634;-83
2022/01/03 06:29:51;;;;;;;4.73;1.23;;;;;;;11.47;87.51;98277.50;4872141;29;20664;-83
2022/01/03 06:32:19;;;;;;;5.50;1.50;;;;;;;11.44;88.65;98273.31;4856197;29;21030;-83
2022/01/03 06:34:47;;;;;;;5.30;1.70;;;;;;;11.41;89.06;98277.88;4855797;29;20641;-83
2022/01/03 06:37:15;;;;;;;4.73;1.37;;;;;;;11.39;89.08;98264.09;4870205;29;20630;-82
2022/01/03 06:39:54;;;;;;;5.33;1.33;;;;;;;11.34;87.41;98263.59;4854216;29;20697;-82
2022/01/03 06:42:23;;;;;;;4.47;1.37;;;;;;;11.33;87.75;98267.13;4839023;29;20636;-83
2022/01/03 06:44:51;;;;;;;5.90;1.80;;;;;;;11.32;89.01;98273.28;4856716;29;20637;-82
2022/01/03 06:47:22;;;;;;;5.03;1.50;;;;;;;11.28;89.26;98266.63;4849080;29;20662;-83
2022/01/03 06:49:50;;;;;;;5.37;1.53;;;;;;;11.24;88.66;98272.97;4851815;29;20639;-83
2022/01/03 06:52:18;;;;;;;6.87;1.70;;;;;;;11.19;88.55;98272.47;4836577;29;20715;-83
2022/01/03 06:54:46;;;;;;;5.43;1.30;;;;;;;11.19;88.47;98266.41;4847996;29;20682;-84
2022/01/03 06:57:15;;;;;;;5.63;1.53;;;;;;;11.20;87.71;98268.06;4855079;29;20637;-83
2022/01/03 06:59:45;;;;;;;5.47;1.47;;;;;;;11.21;89.11;98273.19;4849779;29;20654;-83
2022/01/03 07:02:13;;;;;;;4.53;1.50;;;;;;;11.26;87.07;98273.72;4861760;29;20665;-83
2022/01/03 07:04:41;;;;;;;4.30;1.60;;;;;;;11.26;88.20;98270.25;4851257;29;21221;-83
2022/01/03 07:07:10;;;;;;;3.47;1.17;;;;;;;11.28;86.91;98262.22;4851837;29;20660;-83
2022/01/03 07:09:38;;;;;;;7.60;1.70;;;;;;;11.31;86.30;98269.03;4853616;29;20645;-83
2022/01/03 07:12:07;;;;;;;4.43;1.57;;;;;;;11.33;87.39;98265.34;4865257;29;20623;-83
2022/01/03 07:20:10;;;;;;;5.70;1.40;;;;;;;11.36;86.90;98270.34;4859889;29;20758;-82
2022/01/03 07:22:39;;;;;;;4.27;1.30;;;;;;;11.39;87.32;98264.94;4858091;29;20673;-83
2022/01/03 07:25:08;;;;;;;5.93;1.57;;;;;;;11.37;86.98;98272.03;4858188;29;20637;-83
2022/01/03 07:27:37;;;;;;;7.13;1.60;;;;;;;11.37;87.67;98266.81;4864074;29;20616;-83
2022/01/03 07:30:08;;;;;;;7.10;1.70;;;;;;;11.31;87.19;98272.47;4858633;29;20634;-83
2022/01/03 07:32:36;;;;;;;4.23;1.37;;;;;;;11.33;86.91;98267.97;4861014;29;20643;-83
2022/01/03 07:35:05;;;;;;;8.17;1.70;;;;;;;11.33;87.87;98273.19;4849333;29;21215;-83
2022/01/03 07:37:33;;;;;;;4.57;1.43;;;;;;;11.34;86.70;98266.22;4855894;29;20640;-83
2022/01/03 07:40:01;;;;;;;5.00;1.60;;;;;;;11.33;86.26;98264.53;4860741;29;20760;-83
2022/01/03 07:42:29;;;;;;;3.43;1.27;;;;;;;11.34;87.78;98266.22;4842790;29;21210;-83
2022/01/03 07:45:00;;;;;;;5.63;1.40;;;;;;;11.34;88.03;98260.97;4868966;29;21229;-83
2022/01/03 07:47:30;;;;;;;3.67;1.20;;;;;;;11.36;85.91;98277.38;4857877;29;21277;-83
2022/01/03 07:49:58;;;;;;;5.00;1.60;;;;;;;11.40;87.88;98281.44;4855604;29;20632;-83
2022/01/03 07:52:27;;;;;;;9.67;1.57;;;;;;;11.43;87.08;98273.41;4857599;29;20712;-83
2022/01/03 07:54:55;;;;;;;5.60;2.07;;;;;;;11.38;88.62;98272.88;4855955;29;20648;-83
2022/01/03 07:57:23;;;;;;;4.50;1.40;;;;;;;11.36;87.84;98267.75;4840056;29;20638;-83
2022/01/03 07:59:51;;;;;;;6.67;1.57;;;;;;;11.36;88.96;98275.59;4859948;29;20659;-83
2022/01/03 08:02:19;;;;;;;3.83;1.90;;;;;;;11.39;87.28;98275.38;4860157;29;20641;-83
2022/01/03 08:04:49;;;;;;;5.90;1.43;;;;;;;11.36;87.92;98265.13;4861344;29;20648;-83
2022/01/03 08:07:18;;;;;;;5.00;1.50;;;;;;;11.34;88.68;98260.97;4860445;29;20662;-83
2022/01/03 08:09:46;;;;;;;5.33;1.60;;;;;;;11.34;88.89;98264.41;4863123;29;20624;-85
2022/01/03 08:12:16;;;;;;;4.20;1.50;;;;;;;11.26;88.47;98262.44;4857470;29;20625;-83
2022/01/03 08:14:45;;;;;;;7.53;2.03;;;;;;;11.22;89.50;98255.78;4848312;29;21184;-83
2022/01/03 08:17:13;;;;;;;5.50;1.73;;;;;;;11.18;90.40;98260.34;4834987;29;20631;-83
2022/01/03 08:19:41;;;;;;;5.80;1.40;;;;;;;11.04;90.39;98259.63;4872699;29;20637;-83
2022/01/03 08:22:11;;;;;;;4.37;1.90;;;;;;;10.95;90.53;98265.47;4855424;29;20641;-83
2022/01/03 08:24:39;;;;;;;4.87;1.63;;;;;;;10.92;90.38;98268.28;4860234;29;20629;-83
2022/01/03 08:27:07;;;;;;;6.67;1.40;;;;;;;10.93;91.97;98276.00;4858266;29;20634;-83
2022/01/03 08:29:36;;;;;;;4.40;1.43;;;;;;;10.91;91.52;98275.25;4857081;29;21183;-83
2022/01/03 08:32:04;;;;;;;12.77;1.70;;;;;;;10.86;92.20;98261.69;4853261;29;20634;-83
2022/01/03 08:34:32;;;;;;;8.10;1.60;;;;;;;10.85;93.83;98261.78;4853888;29;20662;-83
2022/01/03 08:37:01;;;;;;;5.50;1.87;;;;;;;10.74;93.49;98253.00;4856947;29;20642;-83
2022/01/03 08:39:31;;;;;;;4.10;1.63;;;;;;;10.68;93.74;98269.06;4851920;29;20628;-83
2022/01/03 08:41:59;;;;;;;3.63;1.50;;;;;;;10.66;93.84;98260.50;4855794;29;20668;-83
2022/01/03 08:44:27;;;;;;;6.50;1.70;;;;;;;10.64;95.84;98262.38;4854294;29;20696;-83
2022/01/03 08:46:56;;;;;;;5.03;1.73;;;;;;;10.69;94.02;98270.72;4855205;29;20724;-83
2022/01/03 08:49:24;;;;;;;5.20;1.40;;;;;;;10.73;94.82;98265.19;4860158;29;20665;-83
2022/01/03 08:51:52;;;;;;;4.97;1.50;;;;;;;10.77;94.74;98258.03;4859085;29;20654;-83
2022/01/03 08:54:20;;;;;;;3.73;1.57;;;;;;;10.80;94.29;98250.00;4859747;29;20761;-83
2022/01/03 08:56:50;;;;;;;5.67;1.37;;;;;;;10.74;95.70;98266.88;4833865;29;20650;-82
2022/01/03 08:59:18;;;;;;;5.57;1.60;;;;;;;10.75;95.88;98285.97;4849616;29;21062;-83
2022/01/03 09:01:46;;;;;;;6.23;1.70;;;;;;;10.79;94.71;98280.44;4842738;29;20670;-83
2022/01/03 09:04:15;;;;;;;7.03;1.97;;;;;;;10.84;94.68;98279.22;4845834;29;20633;-83
2022/01/03 09:06:43;;;;;;;4.83;1.83;;;;;;;10.86;95.51;98261.69;4848139;29;20664;-83
2022/01/03 09:09:11;;;;;;;5.70;2.13;;;;;;;10.86;95.87;98264.28;4849980;29;20632;-83
2022/01/03 09:11:39;;;;;;;7.67;2.10;;;;;;;10.93;96.39;98249.91;4851028;29;20741;-83
2022/01/03 09:14:09;;;;;;;6.83;2.60;;;;;;;11.00;96.02;98255.53;4861617;29;20641;-83
2022/01/03 09:16:37;;;;;;;6.50;2.10;;;;;;;11.10;96.66;98261.81;4857645;29;20638;-83
2022/01/03 09:19:05;;;;;;;6.00;1.73;;;;;;;11.17;95.93;98253.47;4872960;29;20656;-83
2022/01/03 09:21:33;;;;;;;9.00;2.00;;;;;;;11.25;96.38;98258.19;4857547;29;20656;-83
2022/01/03 09:24:22;;;;;;;5.57;1.70;;;;;;;11.30;95.60;98244.66;4868592;29;20637;-83
2022/01/03 09:29:37;;;;;;;5.67;1.83;;;;;;;11.41;95.37;98241.31;4851107;29;20650;-83
2022/01/03 09:32:07;;;;;;;4.47;2.20;;;;;;;11.47;94.76;98236.56;4853981;29;20643;-83
2022/01/03 09:34:35;;;;;;;7.13;1.87;;;;;;;11.54;94.81;98234.34;4846880;29;20643;-83
2022/01/03 09:37:05;;;;;;;8.07;2.40;;;;;;;11.57;94.66;98236.75;4857439;29;20632;-83
2022/01/03 09:39:33;;;;;;;5.77;2.00;;;;;;;11.64;94.57;98227.56;4852868;29;20618;-83
2022/01/03 09:42:04;;;;;;;3.57;1.73;;;;;;;11.67;94.37;98227.34;4852100;29;20695;-83
2022/01/03 09:44:34;;;;;;;6.27;2.60;;;;;;;11.66;94.40;98230.88;4853152;29;20620;-83
2022/01/03 09:47:05;;;;;;;5.83;2.67;;;;;;;11.69;94.47;98235.88;4850268;29;20627;-83
2022/01/03 09:49:36;;;;;;;8.87;3.20;;;;;;;11.74;93.35;98223.31;4853001;29;20646;-83
2022/01/03 09:52:06;;;;;;;9.20;2.80;;;;;;;11.76;94.01;98223.13;4850751;29;20637;-83
2022/01/03 09:54:34;;;;;;;7.10;3.00;;;;;;;11.80;93.97;98231.56;4847949;29;20659;-83
2022/01/03 09:57:04;;;;;;;7.67;3.57;;;;;;;11.81;93.70;98235.84;4849925;29;20694;-83
2022/01/03 09:59:32;;;;;;;10.73;3.17;;;;;;;11.80;95.00;98227.19;4852306;29;20619;-83
2022/01/03 10:02:05;;;;;;;9.43;3.13;;;;;;;11.80;94.23;98231.56;4862388;29;20675;-83
2022/01/03 10:04:36;;;;;;;10.23;2.80;;;;;;;11.83;93.60;98228.72;4854866;29;20627;-83
2022/01/03 10:07:05;;;;;;;9.37;5.50;;;;;;;11.84;93.56;98235.63;4839350;29;20656;-83
2022/01/03 10:09:33;;;;;;;9.83;6.80;;;;;;;11.80;94.50;98229.81;4856033;29;20621;-83
2022/01/03 10:12:02;;;;;;;12.20;4.77;;;;;;;11.82;93.02;98233.13;4857199;29;20626;-83
2022/01/03 10:14:30;;;;;;;10.00;4.93;;;;;;;11.81;93.09;98231.44;4868697;29;20653;-83
2022/01/03 10:16:59;;;;;;;13.77;4.70;;;;;;;11.83;92.87;98226.97;4854143;29;20642;-83
2022/01/03 10:19:28;;;;;;;8.70;2.97;;;;;;;11.87;94.68;98224.97;4858213;29;20698;-83
2022/01/03 10:21:57;;;;;;;8.03;3.23;;;;;;;11.88;95.13;98218.81;4853394;29;20672;-83
2022/01/03 10:24:32;;;;;;;9.87;3.03;;;;;;;11.92;93.18;98228.06;4845359;29;21071;-83
2022/01/03 10:27:01;;;;;;;7.47;3.63;;;;;;;11.93;94.07;98229.75;4845419;29;21184;-83
2022/01/03 10:29:31;;;;;;;7.57;4.30;;;;;;;11.96;96.13;98224.31;4846451;29;20631;-83
2022/01/03 10:32:02;;;;;;;6.47;3.87;;;;;;;11.99;95.40;98221.47;4864431;29;20690;-83
2022/01/03 10:34:33;;;;;;;9.60;3.83;;;;;;;12.00;93.95;98218.75;4852590;29;20657;-83
2022/01/03 10:37:11;;;;;;;8.00;3.70;;;;;;;12.01;94.08;98216.97;4850949;29;20650;-83
2022/01/03 10:39:40;;;;;;;8.60;4.60;;;;;;;12.02;93.76;98221.25;4845483;29;20691;-82
2022/01/03 10:42:16;;;;;;;7.13;3.80;;;;;;;12.04;95.73;98220.22;4848923;29;20679;-83
2022/01/03 10:44:44;;;;;;;8.43;3.93;;;;;;;12.02;94.85;98221.25;4851293;29;21482;-83
2022/01/03 10:47:15;;;;;;;7.93;3.63;;;;;;;11.99;94.27;98211.84;4848508;29;20687;-82
2022/01/03 10:49:46;;;;;;;7.30;3.60;;;;;;;12.00;93.68;98205.69;4852038;29;20742;-83
2022/01/03 10:52:16;;;;;;;7.47;3.57;;;;;;;12.04;93.66;98206.28;4854321;29;20637;-83
2022/01/03 10:54:46;;;;;;;10.03;4.40;;;;;;;12.04;92.81;98199.31;4857519;29;20626;-83
2022/01/03 10:57:15;;;;;;;6.23;3.80;;;;;;;12.06;93.13;98200.00;4844024;29;20736;-83
2022/01/03 10:59:43;;;;;;;7.90;4.00;;;;;;;12.06;93.70;98200.00;4856206;29;20625;-83
2022/01/03 11:02:13;;;;;;;6.63;3.83;;;;;;;12.09;92.63;98199.78;4845812;29;20682;-83
2022/01/03 11:04:48;;;;;;;14.60;4.87;;;;;;;12.08;93.78;98198.13;4827703;29;20632;-83
2022/01/03 11:13:08;;;;;;;6.40;3.80;;;;;;;12.13;92.38;98184.72;4843379;29;20721;-83
2022/01/03 11:15:37;;;;;;;6.87;3.10;;;;;;;12.15;92.66;98188.03;4854190;29;20626;-83
2022/01/03 11:18:12;;;;;;;5.27;2.40;;;;;;;12.20;92.93;98173.69;4848263;29;20638;-83
2022/01/03 11:20:41;;;;;;;44.37;27.00;;;;;;;12.24;91.64;98169.91;4863410;29;20699;-83
2022/01/03 11:23:19;;;;;;;41.90;26.70;;;;;;;12.26;91.72;98175.84;4853910;29;21209;-83
2022/01/03 11:25:49;;;;;;;27.70;15.20;;;;;;;12.26;90.90;98178.47;4849465;29;20640;-83
2022/01/03 11:28:18;;;;;;;17.93;9.37;;;;;;;12.29;90.69;98167.78;4851983;29;20605;-83
2022/01/03 11:30:46;;;;;;;13.20;7.67;;;;;;;12.33;91.51;98166.63;4851004;29;21221;-83
2022/01/03 11:33:15;;;;;;;13.03;7.17;;;;;;;12.35;92.08;98159.50;4861717;29;20665;-83
2022/01/03 11:35:48;;;;;;;91.83;33.70;;;;;;;12.38;90.71;98154.84;4852960;29;21189;-83
2022/01/03 11:38:21;;;;;;;19.10;9.07;;;;;;;12.42;91.44;98148.47;4846010;29;20748;-83
2022/01/03 11:40:50;;;;;;;11.40;6.23;;;;;;;12.44;90.96;98149.16;4844835;29;20657;-83
2022/01/03 11:43:18;;;;;;;15.30;5.33;;;;;;;12.41;90.73;98144.16;4847847;29;20676;-83
2022/01/03 11:45:46;;;;;;;13.00;5.17;;;;;;;12.43;91.57;98139.69;4857001;29;20628;-83
2022/01/03 11:48:15;;;;;;;8.87;5.53;;;;;;;12.45;91.03;98132.53;4851494;29;20646;-83
2022/01/03 11:50:43;;;;;;;8.43;4.60;;;;;;;12.48;89.94;98137.53;4826557;29;20648;-83
2022/01/03 11:53:12;;;;;;;12.37;5.47;;;;;;;12.52;89.75;98130.28;4846467;29;20647;-83
2022/01/03 11:55:43;;;;;;;7.13;4.27;;;;;;;12.54;91.21;98123.13;4843354;29;20665;-83
2022/01/03 11:58:27;;;;;;;7.30;3.33;;;;;;;12.54;91.13;98133.59;4849508;29;20638;-83
2022/01/03 12:03:51;;;;;;;6.93;2.93;;;;;;;12.55;91.12;98115.19;4849508;29;20679;-83